createdAt,value
2023-02-17T00:00:46.640Z,100565.97
2023-02-17T00:01:40.572Z,100552.25
2023-02-17T00:02:20.648Z,100550.88
2023-02-17T00:03:05.583Z,100583.94
2023-02-17T00:03:45.684Z,100581.00
2023-02-17T00:04:19.624Z,100578.31
2023-02-17T00:05:06.571Z,100585.19
2023-02-17T00:05:40.612Z,100589.63
2023-02-17T00:06:32.587Z,100583.69
2023-02-17T00:07:06.633Z,100583.50
2023-02-17T00:07:53.556Z,100585.47
2023-02-17T00:08:27.728Z,100575.47
2023-02-17T00:09:08.601Z,100565.88
2023-02-17T00:09:48.621Z,100580.97
2023-02-17T00:10:28.554Z,100579.78
2023-02-17T00:11:08.608Z,100576.44
2023-02-17T00:11:48.555Z,100558.16
2023-02-17T00:12:28.664Z,100581.41
2023-02-17T00:13:08.560Z,100564.84
2023-02-17T00:13:48.600Z,100557.81
2023-02-17T00:14:28.551Z,100556.31
2023-02-17T00:15:08.632Z,100571.72
2023-02-17T00:15:48.646Z,100550.53
2023-02-17T00:16:32.044Z,100580.41
2023-02-17T00:17:12.542Z,100565.25
2023-02-17T00:17:52.610Z,100563.97
2023-02-17T00:18:32.551Z,100579.56
2023-02-17T00:19:25.403Z,100560.72
2023-02-17T00:20:05.630Z,100568.03
2023-02-17T00:20:45.608Z,100566.09
2023-02-17T00:21:28.540Z,100582.13
2023-02-17T00:22:09.626Z,100585.50
2023-02-17T00:22:49.536Z,100552.13
2023-02-17T00:23:29.633Z,100572.59
2023-02-17T00:24:09.547Z,100566.28
2023-02-17T00:24:49.651Z,100579.97
2023-02-17T00:25:30.554Z,100583.94
2023-02-17T00:26:14.911Z,100579.69
2023-02-17T00:26:54.520Z,100570.50
2023-02-17T00:27:34.599Z,100572.16
2023-02-17T00:28:14.555Z,100552.09
2023-02-17T00:28:55.612Z,100560.38
2023-02-17T00:29:36.549Z,100567.34
2023-02-17T00:30:17.185Z,100566.53
2023-02-17T00:30:57.669Z,100547.56
2023-02-17T00:31:37.690Z,100571.25
2023-02-17T00:32:18.530Z,100570.63
2023-02-17T00:32:58.602Z,100574.59
2023-02-17T00:33:39.536Z,100560.47
2023-02-17T00:34:19.682Z,100561.41
2023-02-17T00:35:02.543Z,100559.00
2023-02-17T00:35:46.610Z,100561.28
2023-02-17T00:36:26.556Z,100573.22
2023-02-17T00:37:06.617Z,100576.63
2023-02-17T00:37:47.539Z,100549.75
2023-02-17T00:38:27.577Z,100555.13
2023-02-17T00:39:08.526Z,100571.94
2023-02-17T00:39:48.656Z,100562.91
2023-02-17T00:40:28.533Z,100552.38
2023-02-17T00:41:08.634Z,100555.91
2023-02-17T00:41:49.553Z,100551.94
2023-02-17T00:42:29.647Z,100570.22
2023-02-17T00:43:09.532Z,100547.00
2023-02-17T00:43:49.587Z,100556.22
2023-02-17T00:44:31.527Z,100555.19
2023-02-17T00:45:12.581Z,100554.53
2023-02-17T00:45:53.508Z,100564.88
2023-02-17T00:46:33.636Z,100573.47
2023-02-17T00:47:13.535Z,100561.41
2023-02-17T00:47:53.654Z,100550.47
2023-02-17T00:48:33.566Z,100554.00
2023-02-17T00:49:13.590Z,100552.16
2023-02-17T00:49:54.516Z,100561.97
2023-02-17T00:50:34.627Z,100554.53
2023-02-17T00:51:15.509Z,100530.66
2023-02-17T00:51:56.611Z,100550.22
2023-02-17T00:52:36.576Z,100535.28
2023-02-17T00:53:16.571Z,100553.47
2023-02-17T00:53:57.539Z,100560.25
2023-02-17T00:54:38.984Z,100532.91
2023-02-17T00:55:18.521Z,100545.69
2023-02-17T00:55:58.608Z,100530.13
2023-02-17T00:56:38.503Z,100546.06
2023-02-17T00:57:32.584Z,100560.78
2023-02-17T00:58:13.532Z,100557.97
2023-02-17T00:58:53.582Z,100565.50
2023-02-17T00:59:33.502Z,100540.34
2023-02-17T01:00:14.550Z,100556.22
2023-02-17T01:00:54.529Z,100556.88
2023-02-17T01:01:34.677Z,100564.41
2023-02-17T01:02:15.514Z,100526.78
2023-02-17T01:02:55.582Z,100553.66
2023-02-17T01:03:36.525Z,100544.31
2023-02-17T01:04:16.567Z,100548.28
2023-02-17T01:04:56.560Z,100549.00
2023-02-17T01:05:36.579Z,100520.84
2023-02-17T01:06:41.490Z,100550.22
2023-02-17T01:07:21.630Z,100540.34
2023-02-17T01:08:02.524Z,100541.09
2023-02-17T01:08:49.583Z,100549.03
2023-02-17T01:09:43.543Z,100544.22
2023-02-17T01:10:37.504Z,100514.28
2023-02-17T01:11:33.510Z,100544.53
2023-02-17T01:12:27.514Z,100533.13
2023-02-17T01:13:22.516Z,100529.47
2023-02-17T01:14:12.530Z,100528.50
2023-02-17T01:14:46.579Z,100513.53
2023-02-17T01:15:33.650Z,100513.66
2023-02-17T01:16:07.995Z,100502.47
2023-02-17T01:16:56.508Z,100528.69
2023-02-17T01:17:30.599Z,100535.47
2023-02-17T01:18:17.488Z,100535.16
2023-02-17T01:18:51.624Z,100513.44
2023-02-17T01:19:31.509Z,100526.97
2023-02-17T01:20:12.579Z,100536.25
2023-02-17T01:20:52.518Z,100529.25
2023-02-17T01:21:35.614Z,100530.66
2023-02-17T01:22:17.506Z,100527.00
2023-02-17T01:22:57.547Z,100527.84
2023-02-17T01:23:37.499Z,100519.25
2023-02-17T01:24:18.551Z,100528.94
2023-02-17T01:24:58.586Z,100510.00
2023-02-17T01:25:42.571Z,100526.34
2023-02-17T01:26:26.517Z,100517.75
2023-02-17T01:27:06.586Z,100519.25
2023-02-17T01:27:46.500Z,100504.81
2023-02-17T01:28:28.567Z,100513.44
2023-02-17T01:29:10.527Z,100506.97
2023-02-17T01:29:52.663Z,100520.84
2023-02-17T01:30:32.526Z,100525.06
2023-02-17T01:31:15.568Z,100515.38
2023-02-17T01:31:55.520Z,100509.56
2023-02-17T01:32:35.581Z,100513.66
2023-02-17T01:33:16.501Z,100509.03
2023-02-17T01:33:57.612Z,100515.16
2023-02-17T01:34:37.518Z,100513.88
2023-02-17T01:35:17.556Z,100500.75
2023-02-17T01:35:57.509Z,100511.72
2023-02-17T01:36:38.606Z,100515.50
2023-02-17T01:37:18.475Z,100485.69
2023-02-17T01:37:58.561Z,100492.78
2023-02-17T01:38:39.475Z,100500.75
2023-02-17T01:39:23.543Z,100501.94
2023-02-17T01:40:03.480Z,100501.41
2023-02-17T01:40:43.567Z,100495.78
2023-02-17T01:41:27.496Z,100506.88
2023-02-17T01:42:07.539Z,100486.75
2023-02-17T01:42:48.495Z,100505.25
2023-02-17T01:43:28.528Z,100508.50
2023-02-17T01:44:23.464Z,100507.75
2023-02-17T01:45:25.543Z,100514.59
2023-02-17T01:46:08.503Z,100508.72
2023-02-17T01:46:54.557Z,100509.88
2023-02-17T01:47:28.527Z,100477.41
2023-02-17T01:48:22.481Z,100514.28
2023-02-17T01:48:57.528Z,100497.00
2023-02-17T01:49:46.485Z,100490.22
2023-02-17T01:50:20.522Z,100490.84
2023-02-17T01:51:17.450Z,100486.84
2023-02-17T01:52:02.483Z,100495.28
2023-02-17T01:52:57.659Z,100506.31
2023-02-17T01:54:12.474Z,100490.84
2023-02-17T01:55:13.530Z,100505.69
2023-02-17T01:56:07.699Z,100504.50
2023-02-17T01:57:02.504Z,100489.78
2023-02-17T01:57:57.456Z,100497.72
2023-02-17T01:58:54.451Z,100493.44
2023-02-17T01:59:50.708Z,100485.91
2023-02-17T02:00:33.534Z,100483.13
2023-02-17T02:01:14.796Z,100470.41
2023-02-17T02:01:58.675Z,100495.34
2023-02-17T02:02:39.606Z,100477.72
2023-02-17T02:03:20.644Z,100485.25
2023-02-17T02:04:01.693Z,100492.91
2023-02-17T02:04:45.498Z,100485.38
2023-02-17T02:05:27.535Z,100477.06
2023-02-17T02:06:10.607Z,100463.66
2023-02-17T02:06:51.456Z,100464.59
2023-02-17T02:07:48.507Z,100461.63
2023-02-17T02:08:22.138Z,100457.94
2023-02-17T02:09:20.512Z,100460.81
2023-02-17T02:09:56.597Z,100471.91
2023-02-17T02:10:43.455Z,100475.78
2023-02-17T02:11:17.137Z,100453.53
2023-02-17T02:12:06.459Z,100470.63
2023-02-17T02:12:43.095Z,100475.56
2023-02-17T02:13:24.460Z,100475.16
2023-02-17T02:13:58.554Z,100448.78
2023-02-17T02:14:32.141Z,100431.69
2023-02-17T02:15:29.421Z,100470.50
2023-02-17T02:16:13.512Z,100456.22
2023-02-17T02:17:44.285Z,100477.28
2023-02-17T02:18:45.475Z,100456.22
2023-02-17T02:19:48.489Z,100459.44
2023-02-17T02:20:50.996Z,100459.44
2023-02-17T02:21:56.423Z,100463.41
2023-02-17T02:22:57.526Z,100457.28
2023-02-17T02:24:14.444Z,100461.47
2023-02-17T02:25:12.492Z,100455.88
2023-02-17T02:26:17.439Z,100437.06
2023-02-17T02:27:25.533Z,100450.31
2023-02-17T02:28:22.429Z,100461.91
2023-02-17T02:30:09.455Z,100464.38
2023-02-17T02:31:23.914Z,100464.16
2023-02-17T02:32:17.426Z,100463.50
2023-02-17T02:33:12.457Z,100455.53
2023-02-17T02:34:30.429Z,100452.31
2023-02-17T02:35:26.443Z,100460.06
2023-02-17T02:36:28.523Z,100434.16
2023-02-17T02:37:20.403Z,100437.69
2023-02-17T02:38:25.614Z,100459.53
2023-02-17T02:39:11.433Z,100448.34
2023-02-17T02:39:55.494Z,100450.41
2023-02-17T02:40:41.431Z,100426.94
2023-02-17T02:41:33.604Z,100431.69
2023-02-17T02:42:18.467Z,100436.84
2023-02-17T02:42:59.451Z,100429.94
2023-02-17T02:43:39.419Z,100448.00
2023-02-17T02:44:22.482Z,100452.41
2023-02-17T02:45:03.414Z,100421.16
2023-02-17T02:45:51.502Z,100431.13
2023-02-17T02:46:25.137Z,100443.94
2023-02-17T02:47:15.403Z,100453.81
2023-02-17T02:47:53.171Z,100430.56
2023-02-17T02:48:41.396Z,100442.59
2023-02-17T02:49:15.171Z,100443.13
2023-02-17T02:50:03.399Z,100419.72
2023-02-17T02:51:20.430Z,100449.47
2023-02-17T02:52:32.546Z,100426.03
2023-02-17T02:53:25.407Z,100432.81
2023-02-17T02:54:28.437Z,100444.19
2023-02-17T02:55:19.399Z,100440.44
2023-02-17T02:56:28.399Z,100447.97
2023-02-17T02:57:43.409Z,100442.41
2023-02-17T02:59:32.435Z,100441.69
2023-02-17T03:00:46.386Z,100426.28
2023-02-17T03:02:13.456Z,100431.97
2023-02-17T03:03:20.403Z,100433.03
2023-02-17T03:04:53.394Z,100423.38
2023-02-17T03:06:29.381Z,100436.06
2023-02-17T03:07:41.424Z,100427.78
2023-02-17T03:08:52.395Z,100426.50
2023-02-17T03:09:47.382Z,100424.41
2023-02-17T03:10:41.395Z,100420.88
2023-02-17T03:11:39.387Z,100414.97
2023-02-17T03:12:34.394Z,100409.06
2023-02-17T03:13:14.404Z,100430.75
2023-02-17T03:13:54.446Z,100431.50
2023-02-17T03:14:35.384Z,100421.81
2023-02-17T03:15:34.464Z,100427.84
2023-02-17T03:16:15.389Z,100412.88
2023-02-17T03:16:56.534Z,100433.97
2023-02-17T03:17:39.392Z,100411.75
2023-02-17T03:18:26.408Z,100431.31
2023-02-17T03:19:22.411Z,100409.19
2023-02-17T03:20:18.363Z,100402.75
2023-02-17T03:21:20.428Z,100429.13
2023-02-17T03:22:31.417Z,100407.13
2023-02-17T03:23:25.359Z,100416.66
2023-02-17T03:24:05.375Z,100417.50
2023-02-17T03:24:45.431Z,100433.72
2023-02-17T03:25:25.372Z,100414.38
2023-02-17T03:26:05.658Z,100435.19
2023-02-17T03:26:45.359Z,100410.66
2023-02-17T03:27:25.422Z,100418.31
2023-02-17T03:28:05.363Z,100421.41
2023-02-17T03:28:45.364Z,100413.91
2023-02-17T03:29:19.414Z,100402.28
2023-02-17T03:30:06.401Z,100405.78
2023-02-17T03:30:40.463Z,100423.94
2023-02-17T03:31:29.707Z,100425.72
2023-02-17T03:32:04.516Z,100428.22
2023-02-17T03:32:51.367Z,100418.19
2023-02-17T03:33:25.450Z,100418.72
2023-02-17T03:34:06.377Z,100412.28
2023-02-17T03:34:46.425Z,100415.16
2023-02-17T03:35:26.376Z,100402.44
2023-02-17T03:36:06.723Z,100422.53
2023-02-17T03:36:47.390Z,100419.09
2023-02-17T03:37:27.422Z,100394.47
2023-02-17T03:38:08.354Z,100422.97
2023-02-17T03:38:48.456Z,100404.66
2023-02-17T03:39:28.374Z,100415.69
2023-02-17T03:40:08.405Z,100408.34
2023-02-17T03:40:48.347Z,100407.59
2023-02-17T03:41:28.409Z,100410.81
2023-02-17T03:42:09.340Z,100385.16
2023-02-17T03:42:49.401Z,100392.66
2023-02-17T03:43:29.397Z,100411.56
2023-02-17T03:44:09.424Z,100410.28
2023-02-17T03:44:49.363Z,100404.28
2023-02-17T03:45:29.479Z,100410.06
2023-02-17T03:46:10.386Z,100386.06
2023-02-17T03:46:52.410Z,100396.00
2023-02-17T03:47:33.345Z,100403.59
2023-02-17T03:48:13.404Z,100397.09
2023-02-17T03:48:53.324Z,100406.97
2023-02-17T03:49:33.399Z,100388.66
2023-02-17T03:50:14.402Z,100375.38
2023-02-17T03:50:54.444Z,100397.84
2023-02-17T03:51:34.344Z,100404.06
2023-02-17T03:52:14.399Z,100404.63
2023-02-17T03:52:54.340Z,100401.28
2023-02-17T03:53:34.423Z,100401.63
2023-02-17T03:54:15.338Z,100389.06
2023-02-17T03:54:55.384Z,100406.28
2023-02-17T03:55:35.385Z,100403.88
2023-02-17T03:56:16.407Z,100401.91
2023-02-17T03:56:56.355Z,100396.00
2023-02-17T03:57:36.412Z,100399.28
2023-02-17T03:58:17.346Z,100379.13
2023-02-17T03:58:57.392Z,100393.31
2023-02-17T03:59:37.325Z,100404.50
2023-02-17T04:00:18.405Z,100392.66
2023-02-17T04:00:58.363Z,100397.75
2023-02-17T04:01:38.424Z,100394.81
2023-02-17T04:02:19.322Z,100379.56
2023-02-17T04:02:59.604Z,100395.78
2023-02-17T04:03:41.329Z,100398.69
2023-02-17T04:04:21.412Z,100396.31
2023-02-17T04:05:01.334Z,100387.59
2023-02-17T04:05:41.452Z,100391.53
2023-02-17T04:06:22.401Z,100390.13
2023-02-17T04:07:02.367Z,100388.38
2023-02-17T04:07:42.321Z,100387.34
2023-02-17T04:08:22.403Z,100400.28
2023-02-17T04:09:02.294Z,100388.31
2023-02-17T04:09:42.382Z,100391.03
2023-02-17T04:10:23.352Z,100385.31
2023-02-17T04:11:06.389Z,100407.38
2023-02-17T04:11:46.338Z,100394.66
2023-02-17T04:12:26.387Z,100387.16
2023-02-17T04:13:06.305Z,100393.59
2023-02-17T04:13:46.430Z,100384.13
2023-02-17T04:14:27.309Z,100386.28
2023-02-17T04:15:07.357Z,100397.06
2023-02-17T04:15:47.379Z,100368.47
2023-02-17T04:16:27.411Z,100374.69
2023-02-17T04:17:07.395Z,100382.84
2023-02-17T04:17:47.375Z,100385.84
2023-02-17T04:18:28.308Z,100385.84
2023-02-17T04:19:08.388Z,100391.22
2023-02-17T04:19:48.320Z,100386.38
2023-02-17T04:20:28.389Z,100394.63
2023-02-17T04:21:09.334Z,100386.06
2023-02-17T04:21:49.435Z,100366.41
2023-02-17T04:22:30.336Z,100384.66
2023-02-17T04:23:10.479Z,100357.50
2023-02-17T04:23:50.317Z,100380.16
2023-02-17T04:24:30.391Z,100373.50
2023-02-17T04:25:11.315Z,100371.47
2023-02-17T04:25:51.374Z,100363.94
2023-02-17T04:26:32.297Z,100361.59
2023-02-17T04:27:13.352Z,100370.28
2023-02-17T04:27:53.316Z,100367.34
2023-02-17T04:28:33.358Z,100361.66
2023-02-17T04:29:13.300Z,100361.00
2023-02-17T04:29:53.369Z,100347.66
2023-02-17T04:30:34.403Z,100339.06
2023-02-17T04:31:14.529Z,100371.56
2023-02-17T04:31:54.437Z,100348.31
2023-02-17T04:32:34.356Z,100346.31
2023-02-17T04:33:14.342Z,100346.97
2023-02-17T04:33:54.826Z,100356.97
2023-02-17T04:34:35.276Z,100353.63
2023-02-17T04:35:15.361Z,100348.47
2023-02-17T04:35:55.297Z,100334.72
2023-02-17T04:36:35.355Z,100359.09
2023-02-17T04:37:15.292Z,100340.25
2023-02-17T04:37:55.376Z,100349.53
2023-02-17T04:38:39.304Z,100345.22
2023-02-17T04:39:19.399Z,100332.75
2023-02-17T04:40:00.281Z,100332.00
2023-02-17T04:40:40.426Z,100337.31
2023-02-17T04:41:20.270Z,100329.91
2023-02-17T04:42:00.373Z,100343.78
2023-02-17T04:42:40.307Z,100331.22
2023-02-17T04:43:20.346Z,100347.97
2023-02-17T04:44:00.362Z,100333.56
2023-02-17T04:44:40.339Z,100327.88
2023-02-17T04:45:21.299Z,100329.66
2023-02-17T04:46:02.706Z,100330.41
2023-02-17T04:46:42.275Z,100341.72
2023-02-17T04:47:22.893Z,100326.00
2023-02-17T04:48:03.255Z,100336.34
2023-02-17T04:48:43.350Z,100304.72
2023-02-17T04:49:23.325Z,100322.56
2023-02-17T04:50:03.340Z,100328.91
2023-02-17T04:50:43.284Z,100333.72
2023-02-17T04:51:23.340Z,100333.63
2023-02-17T04:52:03.284Z,100313.19
2023-02-17T04:52:44.394Z,100334.44
2023-02-17T04:53:25.264Z,100324.66
2023-02-17T04:54:05.349Z,100325.16
2023-02-17T04:54:45.307Z,100323.16
2023-02-17T04:55:25.343Z,100330.25
2023-02-17T04:56:05.560Z,100312.50
2023-02-17T04:56:46.338Z,100316.06
2023-02-17T04:57:26.269Z,100325.97
2023-02-17T04:58:06.359Z,100307.66
2023-02-17T04:58:46.273Z,100302.81
2023-02-17T04:59:26.306Z,100312.31
2023-02-17T05:00:07.281Z,100313.06
2023-02-17T05:00:47.331Z,100305.22
2023-02-17T05:01:27.293Z,100315.22
2023-02-17T05:02:07.323Z,100309.84
2023-02-17T05:02:47.270Z,100328.47
2023-02-17T05:03:27.328Z,100313.06
2023-02-17T05:04:07.290Z,100328.00
2023-02-17T05:04:47.454Z,100323.88
2023-02-17T05:05:27.280Z,100310.75
2023-02-17T05:06:07.550Z,100323.28
2023-02-17T05:06:47.253Z,100312.97
2023-02-17T05:07:27.324Z,100339.03
2023-02-17T05:08:08.275Z,100329.50
2023-02-17T05:08:48.356Z,100310.44
2023-02-17T05:09:28.259Z,100341.00
2023-02-17T05:10:08.325Z,100340.72
2023-02-17T05:10:48.317Z,100331.34
2023-02-17T05:11:28.327Z,100321.91
2023-02-17T05:12:09.263Z,100306.53
2023-02-17T05:12:49.306Z,100328.53
2023-02-17T05:13:29.238Z,100312.25
2023-02-17T05:14:09.397Z,100327.72
2023-02-17T05:14:49.254Z,100333.25
2023-02-17T05:15:43.262Z,100323.38
2023-02-17T05:16:23.350Z,100336.25
2023-02-17T05:17:03.325Z,100321.31
2023-02-17T05:17:44.253Z,100313.25
2023-02-17T05:18:24.372Z,100307.66
2023-02-17T05:19:04.240Z,100314.16
2023-02-17T05:19:44.307Z,100315.06
2023-02-17T05:20:25.271Z,100304.19
2023-02-17T05:21:05.372Z,100317.78
2023-02-17T05:21:45.279Z,100332.19
2023-02-17T05:22:25.316Z,100316.78
2023-02-17T05:23:05.245Z,100319.47
2023-02-17T05:23:45.318Z,100312.13
2023-02-17T05:24:25.245Z,100318.22
2023-02-17T05:25:05.301Z,100314.97
2023-02-17T05:25:47.228Z,100310.56
2023-02-17T05:26:27.391Z,100304.47
2023-02-17T05:27:07.252Z,100333.66
2023-02-17T05:27:47.423Z,100332.41
2023-02-17T05:28:27.261Z,100329.66
2023-02-17T05:29:07.303Z,100328.53
2023-02-17T05:29:47.235Z,100320.84
2023-02-17T05:30:27.358Z,100318.75
2023-02-17T05:31:08.275Z,100322.16
2023-02-17T05:31:49.391Z,100335.50
2023-02-17T05:32:30.242Z,100317.84
2023-02-17T05:33:10.341Z,100330.97
2023-02-17T05:33:51.234Z,100301.09
2023-02-17T05:34:31.310Z,100324.28
2023-02-17T05:35:12.271Z,100310.75
2023-02-17T05:35:52.329Z,100320.19
2023-02-17T05:36:32.231Z,100322.75
2023-02-17T05:37:12.386Z,100325.59
2023-02-17T05:37:52.257Z,100308.84
2023-02-17T05:38:32.285Z,100317.84
2023-02-17T05:39:12.248Z,100315.13
2023-02-17T05:39:52.303Z,100318.91
2023-02-17T05:40:32.263Z,100323.28
2023-02-17T05:41:13.344Z,100317.63
2023-02-17T05:41:54.145Z,100295.78
2023-02-17T05:42:35.329Z,100299.47
2023-02-17T05:43:16.274Z,100320.13
2023-02-17T05:43:57.306Z,100307.69
2023-02-17T05:44:38.252Z,100314.03
2023-02-17T05:45:18.306Z,100299.25
2023-02-17T05:45:58.235Z,100311.16
2023-02-17T05:46:38.431Z,100309.75
2023-02-17T05:47:18.270Z,100305.16
2023-02-17T05:48:12.244Z,100302.69
2023-02-17T05:48:53.267Z,100284.09
2023-02-17T05:49:33.322Z,100291.94
2023-02-17T05:50:14.234Z,100296.91
2023-02-17T05:50:54.314Z,100304.91
2023-02-17T05:51:34.239Z,100280.72
2023-02-17T05:52:16.778Z,100283.41
2023-02-17T05:52:57.242Z,100277.22
2023-02-17T05:53:37.321Z,100285.75
2023-02-17T05:54:17.259Z,100278.03
2023-02-17T05:54:57.417Z,100297.03
2023-02-17T05:55:38.249Z,100272.03
2023-02-17T05:56:19.281Z,100281.56
2023-02-17T05:56:59.224Z,100286.88
2023-02-17T05:57:39.292Z,100287.31
2023-02-17T05:58:19.201Z,100305.16
2023-02-17T05:59:00.450Z,100303.78
2023-02-17T05:59:40.246Z,100287.78
2023-02-17T06:00:21.357Z,100290.97
2023-02-17T06:01:01.248Z,100262.94
2023-02-17T06:01:41.322Z,100305.16
2023-02-17T06:02:21.282Z,100304.47
2023-02-17T06:03:01.436Z,100286.28
2023-02-17T06:03:41.223Z,100298.06
2023-02-17T06:04:22.352Z,100302.31
2023-02-17T06:05:02.305Z,100286.69
2023-02-17T06:05:42.312Z,100300.69
2023-02-17T06:06:22.241Z,100287.53
2023-02-17T06:07:02.321Z,100298.69
2023-02-17T06:07:42.235Z,100296.34
2023-02-17T06:08:22.351Z,100277.03
2023-02-17T06:09:02.234Z,100300.59
2023-02-17T06:09:42.365Z,100298.88
2023-02-17T06:10:23.231Z,100281.03
2023-02-17T06:11:03.284Z,100288.84
2023-02-17T06:11:44.225Z,100286.69
2023-02-17T06:12:25.283Z,100304.44
2023-02-17T06:13:06.341Z,100297.69
2023-02-17T06:13:46.986Z,100280.19
2023-02-17T06:14:27.247Z,100284.19
2023-02-17T06:15:07.284Z,100301.50
2023-02-17T06:15:48.292Z,100303.22
2023-02-17T06:16:29.679Z,100298.81
2023-02-17T06:17:10.258Z,100301.22
2023-02-17T06:17:50.296Z,100302.03
2023-02-17T06:18:31.206Z,100306.16
2023-02-17T06:19:11.305Z,100297.03
2023-02-17T06:19:51.252Z,100299.78
2023-02-17T06:20:32.312Z,100289.25
2023-02-17T06:21:13.285Z,100299.34
2023-02-17T06:21:53.318Z,100285.16
2023-02-17T06:22:33.200Z,100294.06
2023-02-17T06:23:13.269Z,100300.59
2023-02-17T06:23:54.245Z,100294.63
2023-02-17T06:24:35.277Z,100297.38
2023-02-17T06:25:16.235Z,100281.88
2023-02-17T06:25:56.295Z,100292.84
2023-02-17T06:26:36.232Z,100294.16
2023-02-17T06:27:16.313Z,100298.88
2023-02-17T06:27:56.231Z,100274.03
2023-02-17T06:28:36.254Z,100291.84
2023-02-17T06:29:16.248Z,100277.63
2023-02-17T06:29:56.296Z,100280.97
2023-02-17T06:30:37.195Z,100292.69
2023-02-17T06:31:17.330Z,100272.09
2023-02-17T06:31:57.281Z,100272.91
2023-02-17T06:32:38.287Z,100287.38
2023-02-17T06:33:19.183Z,100272.84
2023-02-17T06:33:59.355Z,100266.47
2023-02-17T06:34:39.296Z,100271.78
2023-02-17T06:35:19.324Z,100282.94
2023-02-17T06:35:59.222Z,100265.41
2023-02-17T06:36:40.325Z,100284.56
2023-02-17T06:37:24.212Z,100277.50
2023-02-17T06:38:04.293Z,100266.19
2023-02-17T06:38:44.183Z,100272.19
2023-02-17T06:39:24.339Z,100280.91
2023-02-17T06:40:05.177Z,100275.72
2023-02-17T06:40:45.257Z,100252.75
2023-02-17T06:41:25.167Z,100274.78
2023-02-17T06:42:19.195Z,100267.84
2023-02-17T06:42:59.203Z,100263.06
2023-02-17T06:43:39.245Z,100275.56
2023-02-17T06:44:20.201Z,100259.66
2023-02-17T06:45:00.845Z,100252.63
2023-02-17T06:45:41.274Z,100269.81
2023-02-17T06:46:21.317Z,100256.50
2023-02-17T06:47:01.220Z,100273.56
2023-02-17T06:47:42.266Z,100267.78
2023-02-17T06:48:23.205Z,100280.38
2023-02-17T06:49:03.326Z,100257.19
2023-02-17T06:49:43.182Z,100272.75
2023-02-17T06:50:23.313Z,100273.94
2023-02-17T06:51:03.208Z,100270.34
2023-02-17T06:51:43.262Z,100273.56
2023-02-17T06:52:24.178Z,100268.81
2023-02-17T06:53:04.257Z,100275.16
2023-02-17T06:53:45.215Z,100260.63
2023-02-17T06:54:25.286Z,100259.69
2023-02-17T06:55:05.185Z,100284.56
2023-02-17T06:55:45.277Z,100284.09
2023-02-17T06:56:26.142Z,100268.81
2023-02-17T06:57:06.261Z,100254.06
2023-02-17T06:57:46.175Z,100261.66
2023-02-17T06:58:26.275Z,100266.38
2023-02-17T06:59:08.196Z,100287.19
2023-02-17T06:59:48.365Z,100294.72
2023-02-17T07:00:29.184Z,100277.63
2023-02-17T07:01:09.568Z,100278.13
2023-02-17T07:01:49.271Z,100293.81
2023-02-17T07:02:29.313Z,100285.22
2023-02-17T07:03:09.187Z,100293.59
2023-02-17T07:03:49.303Z,100276.09
2023-02-17T07:04:30.219Z,100292.38
2023-02-17T07:05:11.275Z,100284.91
2023-02-17T07:05:51.184Z,100264.44
2023-02-17T07:06:32.259Z,100262.28
2023-02-17T07:07:13.174Z,100279.84
2023-02-17T07:07:53.608Z,100286.94
2023-02-17T07:08:34.239Z,100278.00
2023-02-17T07:09:14.281Z,100272.31
2023-02-17T07:09:54.189Z,100264.56
2023-02-17T07:10:34.474Z,100272.53
2023-02-17T07:11:17.160Z,100287.25
2023-02-17T07:12:00.168Z,100284.31
2023-02-17T07:12:41.170Z,100270.06
2023-02-17T07:13:21.256Z,100296.91
2023-02-17T07:14:01.161Z,100297.88
2023-02-17T07:14:42.246Z,100292.38
2023-02-17T07:15:22.205Z,100286.72
2023-02-17T07:16:02.274Z,100291.78
2023-02-17T07:16:43.225Z,100290.97
2023-02-17T07:17:23.546Z,100294.22
2023-02-17T07:18:03.176Z,100287.19
2023-02-17T07:18:44.293Z,100297.88
2023-02-17T07:19:24.165Z,100301.34
2023-02-17T07:20:04.319Z,100297.69
2023-02-17T07:20:45.241Z,100280.09
2023-02-17T07:21:25.230Z,100279.69
2023-02-17T07:22:05.160Z,100293.53
2023-02-17T07:22:45.236Z,100284.56
2023-02-17T07:23:26.181Z,100289.41
2023-02-17T07:24:06.220Z,100291.97
2023-02-17T07:24:47.174Z,100290.91
2023-02-17T07:25:27.273Z,100279.63
2023-02-17T07:26:15.168Z,100294.78
2023-02-17T07:26:56.279Z,100283.06
2023-02-17T07:27:37.147Z,100286.41
2023-02-17T07:28:17.205Z,100281.34
2023-02-17T07:28:58.190Z,100277.03
2023-02-17T07:29:38.261Z,100292.50
2023-02-17T07:30:19.144Z,100268.03
2023-02-17T07:30:59.274Z,100283.97
2023-02-17T07:31:40.260Z,100281.81
2023-02-17T07:32:20.207Z,100258.97
2023-02-17T07:33:01.172Z,100269.53
2023-02-17T07:33:42.254Z,100264.16
2023-02-17T07:34:22.149Z,100277.28
2023-02-17T07:35:02.228Z,100279.41
2023-02-17T07:35:50.127Z,100268.09
2023-02-17T07:36:30.259Z,100268.88
2023-02-17T07:37:11.157Z,100267.56
2023-02-17T07:37:51.662Z,100274.25
2023-02-17T07:38:33.362Z,100242.91
2023-02-17T07:39:13.249Z,100263.25
2023-02-17T07:39:54.156Z,100268.88
2023-02-17T07:40:35.261Z,100260.56
2023-02-17T07:41:23.145Z,100260.81
2023-02-17T07:42:05.096Z,100269.09
2023-02-17T07:42:46.157Z,100262.66
2023-02-17T07:43:26.220Z,100263.25
2023-02-17T07:44:07.140Z,100262.41
2023-02-17T07:44:47.219Z,100255.44
2023-02-17T07:45:28.158Z,100256.56
2023-02-17T07:46:08.749Z,100253.88
2023-02-17T07:46:50.217Z,100255.72
2023-02-17T07:47:30.189Z,100250.41
2023-02-17T07:48:11.184Z,100255.03
2023-02-17T07:48:52.202Z,100254.34
2023-02-17T07:49:33.138Z,100244.97
2023-02-17T07:50:14.165Z,100262.59
2023-02-17T07:50:54.123Z,100235.41
2023-02-17T07:51:34.241Z,100264.31
2023-02-17T07:52:14.148Z,100254.16
2023-02-17T07:52:54.242Z,100246.59
2023-02-17T07:53:35.126Z,100240.56
2023-02-17T07:54:15.270Z,100253.94
2023-02-17T07:54:55.094Z,100238.72
2023-02-17T07:55:35.276Z,100252.97
2023-02-17T07:56:19.102Z,100254.19
2023-02-17T07:56:59.166Z,100243.31
2023-02-17T07:57:40.138Z,100242.06
2023-02-17T07:58:34.138Z,100228.88
2023-02-17T07:59:19.104Z,100251.78
2023-02-17T07:59:59.172Z,100246.47
2023-02-17T08:00:39.132Z,100250.53
2023-02-17T08:01:26.238Z,100235.34
2023-02-17T08:02:07.165Z,100228.78
2023-02-17T08:02:47.348Z,100247.72
2023-02-17T08:03:27.091Z,100244.97
2023-02-17T08:04:07.179Z,100250.91
2023-02-17T08:04:41.178Z,100224.38
2023-02-17T08:05:28.465Z,100219.00
2023-02-17T08:06:02.171Z,100239.91
2023-02-17T08:06:49.089Z,100243.06
2023-02-17T08:07:23.183Z,100225.47
2023-02-17T08:08:29.331Z,100231.06
2023-02-17T08:09:29.107Z,100232.78
2023-02-17T08:10:44.144Z,100234.72
2023-02-17T08:11:56.083Z,100205.38
2023-02-17T08:13:09.142Z,100213.44
2023-02-17T08:14:03.119Z,100221.81